createdAt,value
2019-03-20T00:01:23.190Z,101876.00
2019-03-20T00:12:01.297Z,101867.00
2019-03-20T00:22:39.612Z,101885.00
2019-03-20T00:33:10.263Z,101920.00
2019-03-20T00:43:44.156Z,101956.00
2019-03-20T00:54:19.014Z,101970.00
2019-03-20T01:04:52.968Z,101966.00
2019-03-20T01:15:24.838Z,101992.00
2019-03-20T01:25:56.450Z,102026.00
2019-03-20T01:36:35.133Z,102021.00
2019-03-20T01:47:14.025Z,102013.00
2019-03-20T01:57:44.925Z,102029.00
2019-03-20T02:08:23.190Z,102055.00
2019-03-20T02:18:56.947Z,102040.00
2019-03-20T02:29:36.245Z,102040.00
2019-03-20T02:40:17.359Z,102060.00
2019-03-20T02:50:59.634Z,102095.00
2019-03-20T03:01:43.484Z,102094.00
2019-03-20T03:12:23.461Z,102122.00
2019-03-20T03:23:07.798Z,102125.00
2019-03-20T03:33:49.238Z,102158.00
2019-03-20T03:44:29.905Z,102177.00
2019-03-20T03:55:12.553Z,102191.00
2019-03-20T04:05:47.433Z,102187.00
2019-03-20T04:07:00.887Z,102180.00
2019-03-20T04:17:42.649Z,102196.00
2019-03-20T04:28:24.115Z,102225.00
2019-03-20T04:39:06.270Z,102245.00
2019-03-20T04:49:46.003Z,102258.00
2019-03-20T05:00:26.459Z,102267.00
2019-03-20T05:11:10.098Z,102279.00
2019-03-20T05:21:52.967Z,102272.00
2019-03-20T05:32:35.764Z,102310.00
2019-03-20T05:43:18.240Z,102316.00
2019-03-20T05:54:02.238Z,102321.00
2019-03-20T06:04:45.606Z,102295.00
2019-03-20T06:15:27.049Z,102275.00
2019-03-20T06:26:08.928Z,102241.00
2019-03-20T06:36:52.328Z,102194.00
2019-03-20T06:47:34.449Z,102120.00
2019-03-20T06:58:12.434Z,102042.00
2019-03-20T07:08:54.450Z,101987.00
2019-03-20T07:19:41.635Z,101922.00
2019-03-20T07:30:24.285Z,101850.00
2019-03-20T07:41:09.029Z,101758.00
2019-03-20T07:51:55.089Z,101683.00
2019-03-20T08:02:40.250Z,101576.00
2019-03-20T08:13:25.743Z,101499.00
2019-03-20T08:24:11.081Z,101331.00
2019-03-20T08:34:57.146Z,101182.00
2019-03-20T08:45:37.519Z,101141.00
2019-03-20T08:56:22.940Z,101075.00
2019-03-20T09:07:07.514Z,101055.00
2019-03-20T09:17:51.011Z,100984.00
2019-03-20T09:28:35.714Z,100879.00
2019-03-20T09:39:24.303Z,100813.00
2019-03-20T09:50:12.310Z,100745.00
2019-03-20T10:00:54.048Z,100654.00
2019-03-20T10:11:38.074Z,100597.00
2019-03-20T10:22:24.991Z,100522.00
2019-03-20T10:33:11.178Z,100449.00
2019-03-20T10:43:53.151Z,100350.00
2019-03-20T10:54:32.424Z,100273.00
2019-03-20T11:05:10.961Z,100216.00
2019-03-20T11:15:54.965Z,100156.00
2019-03-20T11:26:41.394Z,100072.00
2019-03-20T11:37:14.503Z,100062.00
2019-03-20T11:47:57.211Z,99953.00
2019-03-20T11:58:40.023Z,99883.00
2019-03-20T12:09:25.053Z,99929.00
2019-03-20T12:20:04.402Z,99924.00
2019-03-20T12:30:44.049Z,99805.00
2019-03-20T12:41:24.124Z,99715.00
2019-03-20T12:52:03.498Z,99747.00
2019-03-20T13:02:48.136Z,99750.00
2019-03-20T13:13:28.149Z,99698.00
2019-03-20T13:24:11.063Z,99550.00
2019-03-20T13:34:49.121Z,99537.00
2019-03-20T13:45:34.976Z,99622.00
2019-03-20T13:56:23.267Z,99664.00
2019-03-20T18:18:59.241Z,100314.00
2019-03-20T18:29:34.990Z,100396.00
2019-03-20T18:40:11.627Z,100484.00
2019-03-20T18:50:50.933Z,100569.00
2019-03-20T19:01:32.775Z,100675.00
2019-03-20T19:12:09.391Z,100789.00
2019-03-20T19:22:50.324Z,100814.00
2019-03-20T19:33:26.467Z,100860.00
2019-03-20T19:44:07.844Z,100928.00
2019-03-20T19:54:46.201Z,100946.00
2019-03-20T20:05:25.694Z,100986.00
2019-03-20T20:15:58.175Z,101044.00
2019-03-20T20:26:34.623Z,101071.00
2019-03-20T20:37:13.865Z,101114.00
2019-03-20T20:47:55.159Z,101150.00
2019-03-20T20:58:32.387Z,101196.00
2019-03-20T21:09:11.579Z,101223.00
2019-03-20T21:19:48.408Z,101265.00
2019-03-20T21:30:27.336Z,101304.00
2019-03-20T21:41:06.909Z,101325.00
2019-03-20T21:51:46.363Z,101358.00
2019-03-20T22:02:19.696Z,101408.00
2019-03-20T22:12:53.705Z,101444.00
2019-03-20T22:23:26.004Z,101474.00
2019-03-20T22:34:10.884Z,101475.00
2019-03-20T22:44:52.867Z,101492.00
2019-03-20T22:55:37.022Z,101515.00
2019-03-20T23:06:21.258Z,101533.00
2019-03-20T23:16:56.536Z,101559.00
2019-03-20T23:27:40.843Z,101582.00
2019-03-20T23:38:23.595Z,101601.00
2019-03-20T23:49:07.456Z,101623.00
2019-03-20T23:59:51.019Z,101624.00
